CheckWX is a tool to help pilots better visualize weather data.  It is not intended as a substitute for an official pre-flight weather briefing.

14:16:58 UTC

KDGW METAR
Converse County Airport
Douglas, Wyoming, USA
Current

24 mins ago

KDGW 221353Z AUTO 10007KT 10SM OVC033 03/02 A3029 RMK AO2 SLP261 T00330017 $
Observed
Apr-22 @ 13:53 UTC
Wind
  • 100° at 7 KTS
Visibility
10 SM
Flight Rules
VFR
Cloud Levels
  • Overcast at 3,300' AGL
Temperature
C / 37°F
Dewpoint
C / 36°F
Humidity
93%
Altimeter
30.29" Hg
Pressure
1025.72 hPa
Previous

1 hour ago

KDGW 221253Z AUTO 13006KT 10SM BKN024 OVC030 03/03 A3027 RMK AO2 SLP253 T00330028 $
Observed
Apr-22 @ 12:53 UTC
Wind
  • 130° at 6 KTS
Visibility
10 SM
Flight Rules
MVFR
Cloud Levels
  • Broken at 2,400' AGL
  • Overcast at 3,000' AGL
Temperature
C / 37°F
Dewpoint
C / 37°F
Humidity
100%
Altimeter
30.27" Hg
Pressure
1025.02 hPa
Previous

2 hours ago

KDGW 221153Z AUTO 18004KT 10SM OVC026 03/03 A3025 RMK AO2 SLP242 60005 70015 T00330033 10050 20033 $
Observed
Apr-22 @ 11:53 UTC
Wind
  • 180° at 4 KTS
Visibility
10 SM
Flight Rules
MVFR
Cloud Levels
  • Overcast at 2,600' AGL
Temperature
C / 37°F
Dewpoint
C / 37°F
Humidity
100%
Altimeter
30.25" Hg
Pressure
1024.42 hPa
24 Hour Rain
0.15"